Shawnee Hills, Ohio
Current Conditions -  °F | °C
As of 1:13 AM on Monday 26 Jan 2015 (Local Time) from KOSU Reporting Station
Light Snow Light Snow  
Wind Chill: 12°   Ceiling: 1900
Heat Index: 24°   Visibility: 1.5mi
Dew Point: 21°   Wind: 14mph
Humidity: 88%   Direction: 10°N
Pressure: 29.75"   Gusts: NA
Location:  40.1701°N, 83.0808°W
Report Text: KOSU 260613Z AUTO 01012KT 1 1/2SM -SN BR FEW009 OVC019 M04/M06 A2975 RMK AO2 P0000 T10441061
Loading
Personal Weather Stations






























Interactive Weather Map New forecast layout! Learn more

10-Day Weather Forecast

Advertisements
Track Severe Weather on mobile